Temp: 3.8°C   Baro: 1036.4mb
  Wind: 0.0mph   Dir: W (273°)
  Rain: 0.0mm (0.0mm/hr)
  Solar: 0W/m2  Hum: 84%

Historic data

Bath Spa Weather Station Historical Data
Daily Summary for December 27, 2019 Units:  Both    English   Metric
Daily Weekly Monthly Yearly Custom
  High: Low: Average:
Temperature: 48.3 °F /  9.1 °C 43.9 °F /  6.6 °C 46.7 °F /  8.2 °C
Dew Point: 47.2 °F /  8.4 °C 42.8 °F /  6 °C 45.7 °F /  7.6 °C
Humidity: 96.4% 96% 96%
Wind Speed: 5.5mph /  8.9km/h - 1.9mph /  3.1km/h
Wind Gust: 10mph /  16.1km/h - -
Wind- - SE
Pressure: 30.53 in /  1033.7 hPa 30.14 in /  1020.5 hPa -
Precipitation: 0.01 in /  0.25 mm    
Historical Graphs
 
 
Tabular Data for December 27, 2019
Time Temperature Dew Point Pressure Wind Wind Speed Wind Gust Humidity Rainfall Rate (Hourly) solar
00:09 47.8 °F /  8.8 °C 46.8 °F /  8.2 °C 30.14in /  1020.5hPa West 1.9mph /  3.1km/h 5mph /  8km/h 96% 0.00in /  0mm 0 W/m2
00:14 47.8 °F /  8.8 °C 46.8 °F /  8.2 °C 30.14in /  1020.5hPa WNW 2.9mph /  4.7km/h 6mph /  9.7km/h 96% 0.00in /  0mm 0 W/m2
00:19 47.7 °F /  8.7 °C 46.7 °F /  8.2 °C 30.15in /  1020.9hPa WNW 3.3mph /  5.3km/h 6mph /  9.7km/h 96% 0.00in /  0mm 0 W/m2
00:24 47.7 °F /  8.7 °C 46.6 °F /  8.1 °C 30.15in /  1020.9hPa NW 2.7mph /  4.3km/h 6mph /  9.7km/h 96% 0.00in /  0mm 0 W/m2
00:29 47.6 °F /  8.7 °C 46.5 °F /  8.1 °C 30.15in /  1020.9hPa WNW 2.6mph /  4.2km/h 6mph /  9.7km/h 96% 0.00in /  0mm 0 W/m2
00:34 47.5 °F /  8.6 °C 46.4 °F /  8 °C 30.15in /  1020.9hPa WNW 2.6mph /  4.2km/h 5mph /  8km/h 96% 0.00in /  0mm 0 W/m2
00:39 47.5 °F /  8.6 °C 46.4 °F /  8 °C 30.16in /  1021.2hPa WNW 2.8mph /  4.5km/h 7mph /  11.3km/h 96% 0.00in /  0mm 0 W/m2
00:44 47.5 °F /  8.6 °C 46.4 °F /  8 °C 30.16in /  1021.2hPa WNW 1.9mph /  3.1km/h 5mph /  8km/h 96% 0.00in /  0mm 0 W/m2
00:49 47.5 °F /  8.6 °C 46.4 °F /  8 °C 30.16in /  1021.2hPa WNW 1.3mph /  2.1km/h 4mph /  6.4km/h 96% 0.00in /  0mm 0 W/m2
00:54 47.5 °F /  8.6 °C 46.4 °F /  8 °C 30.16in /  1021.2hPa WNW 3.6mph /  5.8km/h 6mph /  9.7km/h 96% 0.00in /  0mm 0 W/m2
00:58 47.5 °F /  8.6 °C 46.4 °F /  8 °C 30.17in /  1021.6hPa WNW 2mph /  3.2km/h 3mph /  4.8km/h 96% 0.00in /  0mm 0 W/m2
01:04 47.5 °F /  8.6 °C 46.4 °F /  8 °C 30.17in /  1021.6hPa WNW 1.5mph /  2.4km/h 6mph /  9.7km/h 96% 0.00in /  0mm 0 W/m2
01:09 47.5 °F /  8.6 °C 46.4 °F /  8 °C 30.17in /  1021.6hPa WNW 1.1mph /  1.8km/h 4mph /  6.4km/h 96% 0.00in /  0mm 0 W/m2
01:14 47.5 °F /  8.6 °C 46.4 °F /  8 °C 30.17in /  1021.6hPa WNW 0.4mph /  0.6km/h 3mph /  4.8km/h 96% 0.00in /  0mm 0 W/m2
01:19 47.5 °F /  8.6 °C 46.4 °F /  8 °C 30.18in /  1021.9hPa WNW 0.6mph /  1km/h 2mph /  3.2km/h 96% 0.00in /  0mm 0 W/m2
01:24 47.5 °F /  8.6 °C 46.4 °F /  8 °C 30.18in /  1021.9hPa WNW 1.3mph /  2.1km/h 4mph /  6.4km/h 96% 0.00in /  0mm 0 W/m2
01:29 47.4 °F /  8.6 °C 46.3 °F /  7.9 °C 30.18in /  1021.9hPa WNW 1.2mph /  1.9km/h 4mph /  6.4km/h 96% 0.00in /  0mm 0 W/m2
01:34 47.5 °F /  8.6 °C 46.3 °F /  7.9 °C 30.18in /  1021.9hPa WNW 1.2mph /  1.9km/h 2mph /  3.2km/h 96% 0.00in /  0mm 0 W/m2
01:39 47.5 °F /  8.6 °C 46.4 °F /  8 °C 30.18in /  1021.9hPa WNW 0.7mph /  1.1km/h 2mph /  3.2km/h 96% 0.00in /  0mm 0 W/m2
01:44 47.5 °F /  8.6 °C 46.4 °F /  8 °C 30.19in /  1022.2hPa WNW 0.9mph /  1.4km/h 2mph /  3.2km/h 96% 0.00in /  0mm 0 W/m2
01:49 47.5 °F /  8.6 °C 46.4 °F /  8 °C 30.19in /  1022.2hPa WNW 1.5mph /  2.4km/h 3mph /  4.8km/h 96% 0.00in /  0mm 0 W/m2
01:54 47.4 °F /  8.6 °C 46.3 °F /  7.9 °C 30.19in /  1022.2hPa West 2mph /  3.2km/h 3mph /  4.8km/h 96% 0.00in /  0mm 0 W/m2
01:59 47.4 °F /  8.6 °C 46.3 °F /  7.9 °C 30.19in /  1022.2hPa West 0.7mph /  1.1km/h 2mph /  3.2km/h 96% 0.00in /  0mm 0 W/m2
02:04 47.3 °F /  8.5 °C 46.2 °F /  7.9 °C 30.20in /  1022.6hPa West 0.5mph /  0.8km/h 2mph /  3.2km/h 96% 0.00in /  0mm 0 W/m2
02:09 47.2 °F /  8.4 °C 46.1 °F /  7.8 °C 30.20in /  1022.6hPa West 0.2mph /  0.3km/h 1mph /  1.6km/h 96% 0.00in /  0mm 0 W/m2
02:14 47.1 °F /  8.4 °C 46 °F /  7.8 °C 30.20in /  1022.6hPa West 0.7mph /  1.1km/h 2mph /  3.2km/h 96% 0.00in /  0mm 0 W/m2
02:19 47.1 °F /  8.4 °C 46 °F /  7.8 °C 30.20in /  1022.6hPa Calm   2mph /  3.2km/h 96% 0.00in /  0mm 0 W/m2
02:24 47.1 °F /  8.4 °C 46 °F /  7.8 °C 30.21in /  1022.9hPa Calm     96% 0.00in /  0mm 0 W/m2
02:29 47 °F /  8.3 °C 45.9 °F /  7.7 °C 30.21in /  1022.9hPa West 0.2mph /  0.3km/h 1mph /  1.6km/h 96% 0.00in /  0mm 0 W/m2
02:34 46.9 °F /  8.3 °C 45.8 °F /  7.7 °C 30.22in /  1023.2hPa Calm     96% 0.00in /  0mm 0 W/m2
02:39 46.7 °F /  8.2 °C 45.6 °F /  7.6 °C 30.22in /  1023.2hPa West 0.4mph /  0.6km/h 1mph /  1.6km/h 96% 0.00in /  0mm 0 W/m2
02:44 46.8 °F /  8.2 °C 45.7 °F /  7.6 °C 30.22in /  1023.2hPa West 0.8mph /  1.3km/h 2mph /  3.2km/h 96% 0.00in /  0mm 0 W/m2
02:49 46.8 °F /  8.2 °C 45.7 °F /  7.6 °C 30.22in /  1023.2hPa West 0.6mph /  1km/h 2mph /  3.2km/h 96% 0.00in /  0mm 0 W/m2
02:53 46.8 °F /  8.2 °C 45.7 °F /  7.6 °C 30.22in /  1023.2hPa West 0.5mph /  0.8km/h 2mph /  3.2km/h 96% 0.00in /  0mm 0 W/m2
02:59 46.8 °F /  8.2 °C 45.7 °F /  7.6 °C 30.22in /  1023.2hPa West 1mph /  1.6km/h 2mph /  3.2km/h 96% 0.00in /  0mm 0 W/m2
03:04 46.8 °F /  8.2 °C 45.7 °F /  7.6 °C 30.22in /  1023.2hPa West 1.1mph /  1.8km/h 2mph /  3.2km/h 96% 0.00in /  0mm 0 W/m2
03:09 46.8 °F /  8.2 °C 45.7 °F /  7.6 °C 30.23in /  1023.6hPa West 0.4mph /  0.6km/h 1mph /  1.6km/h 96% 0.00in /  0mm 0 W/m2
03:14 46.8 °F /  8.2 °C 45.7 °F /  7.6 °C 30.23in /  1023.6hPa West 0.8mph /  1.3km/h 2mph /  3.2km/h 96% 0.00in /  0mm 0 W/m2
03:19 46.9 °F /  8.3 °C 45.9 °F /  7.7 °C 30.23in /  1023.6hPa West 1.1mph /  1.8km/h 2mph /  3.2km/h 96% 0.00in /  0mm 0 W/m2
03:24 46.9 °F /  8.3 °C 45.9 °F /  7.7 °C 30.23in /  1023.6hPa West 0.9mph /  1.4km/h 2mph /  3.2km/h 96% 0.00in /  0mm 0 W/m2
03:29 46.9 °F /  8.3 °C 45.9 °F /  7.7 °C 30.22in /  1023.2hPa Calm   1mph /  1.6km/h 96% 0.00in /  0mm 0 W/m2
03:34 46.8 °F /  8.2 °C 45.7 °F /  7.6 °C 30.22in /  1023.2hPa Calm   2mph /  3.2km/h 96% 0.00in /  0mm 0 W/m2
03:39 46.6 °F /  8.1 °C 45.5 °F /  7.5 °C 30.22in /  1023.2hPa West 0.4mph /  0.6km/h 1mph /  1.6km/h 96% 0.00in /  0mm 0 W/m2
03:44 46.6 °F /  8.1 °C 45.5 °F /  7.5 °C 30.23in /  1023.6hPa Calm   1mph /  1.6km/h 96% 0.00in /  0mm 0 W/m2
03:49 46.6 °F /  8.1 °C 45.5 °F /  7.5 °C 30.23in /  1023.6hPa Calm   1mph /  1.6km/h 96% 0.00in /  0mm 0 W/m2
03:54 46.7 °F /  8.2 °C 45.6 °F /  7.6 °C 30.23in /  1023.6hPa Calm     96% 0.00in /  0mm 0 W/m2
03:59 46.6 °F /  8.1 °C 45.5 °F /  7.5 °C 30.23in /  1023.6hPa West 0.4mph /  0.6km/h 1mph /  1.6km/h 96% 0.00in /  0mm 0 W/m2
04:04 46.8 °F /  8.2 °C 45.7 °F /  7.6 °C 30.23in /  1023.6hPa West 1.1mph /  1.8km/h 2mph /  3.2km/h 96% 0.00in /  0mm 0 W/m2
04:08 46.8 °F /  8.2 °C 45.8 °F /  7.7 °C 30.23in /  1023.6hPa West 1.5mph /  2.4km/h 2mph /  3.2km/h 96% 0.00in /  0mm 0 W/m2
04:14 46.9 °F /  8.3 °C 45.8 °F /  7.7 °C 30.24in /  1023.9hPa SW 1.3mph /  2.1km/h 3mph /  4.8km/h 96% 0.00in /  0mm 0 W/m2
04:19 46.9 °F /  8.3 °C 45.9 °F /  7.7 °C 30.24in /  1023.9hPa ENE 2mph /  3.2km/h 5mph /  8km/h 96% 0.00in /  0mm 0 W/m2
04:24 46.9 °F /  8.3 °C 45.9 °F /  7.7 °C 30.24in /  1023.9hPa NE 1.3mph /  2.1km/h 3mph /  4.8km/h 96% 0.00in /  0mm 0 W/m2
04:29 46.9 °F /  8.3 °C 45.9 °F /  7.7 °C 30.24in /  1023.9hPa ENE 1.5mph /  2.4km/h 3mph /  4.8km/h 96% 0.00in /  0mm 0 W/m2
04:34 46.9 °F /  8.3 °C 45.9 °F /  7.7 °C 30.24in /  1023.9hPa NE 2mph /  3.2km/h 4mph /  6.4km/h 96% 0.00in /  0mm 0 W/m2
04:39 46.9 °F /  8.3 °C 45.9 °F /  7.7 °C 30.25in /  1024.3hPa NE 1.3mph /  2.1km/h 3mph /  4.8km/h 96% 0.00in /  0mm 0 W/m2
04:44 46.8 °F /  8.2 °C 45.8 °F /  7.7 °C 30.25in /  1024.3hPa ESE 1.7mph /  2.7km/h 4mph /  6.4km/h 96% 0.00in /  0mm 0 W/m2
04:49 46.8 °F /  8.2 °C 45.7 °F /  7.6 °C 30.26in /  1024.6hPa East 2.1mph /  3.4km/h 5mph /  8km/h 96% 0.00in /  0mm 0 W/m2
04:54 46.8 °F /  8.2 °C 45.7 °F /  7.6 °C 30.26in /  1024.6hPa ENE 2.4mph /  3.9km/h 5mph /  8km/h 96% 0.00in /  0mm 0 W/m2
04:59 46.8 °F /  8.2 °C 45.7 °F /  7.6 °C 30.26in /  1024.6hPa ENE 1.5mph /  2.4km/h 3mph /  4.8km/h 96% 0.00in /  0mm 0 W/m2
05:04 46.8 °F /  8.2 °C 45.7 °F /  7.6 °C 30.26in /  1024.6hPa East 1.7mph /  2.7km/h 5mph /  8km/h 96% 0.00in /  0mm 0 W/m2
05:09 46.8 °F /  8.2 °C 45.7 °F /  7.6 °C 30.26in /  1024.6hPa East 1.2mph /  1.9km/h 5mph /  8km/h 96% 0.00in /  0mm 0 W/m2
05:14 46.7 °F /  8.2 °C 45.6 °F /  7.6 °C 30.26in /  1024.6hPa ENE 0.5mph /  0.8km/h 3mph /  4.8km/h 96% 0.00in /  0mm 0 W/m2
05:19 46.7 °F /  8.2 °C 45.6 °F /  7.6 °C 30.26in /  1024.6hPa East 1.3mph /  2.1km/h 2mph /  3.2km/h 96% 0.00in /  0mm 0 W/m2
05:24 46.6 °F /  8.1 °C 45.5 °F /  7.5 °C 30.26in /  1024.6hPa East 1.7mph /  2.7km/h 5mph /  8km/h 96% 0.00in /  0mm 0 W/m2
05:29 46.6 °F /  8.1 °C 45.5 °F /  7.5 °C 30.26in /  1024.6hPa East 1.6mph /  2.6km/h 3mph /  4.8km/h 96% 0.00in /  0mm 0 W/m2
05:34 46.6 °F /  8.1 °C 45.5 °F /  7.5 °C 30.27in /  1024.9hPa East 1.7mph /  2.7km/h 5mph /  8km/h 96% 0.00in /  0mm 0 W/m2
05:39 46.6 °F /  8.1 °C 45.5 °F /  7.5 °C 30.27in /  1024.9hPa East 0.5mph /  0.8km/h 3mph /  4.8km/h 96% 0.00in /  0mm 0 W/m2
05:44 46.3 °F /  7.9 °C 45.2 °F /  7.3 °C 30.27in /  1024.9hPa ESE 2mph /  3.2km/h 3mph /  4.8km/h 96% 0.00in /  0mm 0 W/m2
05:49 46.2 °F /  7.9 °C 45.1 °F /  7.3 °C 30.27in /  1024.9hPa East 2.2mph /  3.5km/h 4mph /  6.4km/h 96% 0.00in /  0mm 0 W/m2
05:54 46.2 °F /  7.9 °C 45.1 °F /  7.3 °C 30.28in /  1025.3hPa ESE 1.1mph /  1.8km/h 3mph /  4.8km/h 96% 0.00in /  0mm 0 W/m2
05:59 46.2 °F /  7.9 °C 45.1 °F /  7.3 °C 30.28in /  1025.3hPa ESE 0.7mph /  1.1km/h 2mph /  3.2km/h 96% 0.00in /  0mm 0 W/m2
06:03 46.2 °F /  7.9 °C 45.1 °F /  7.3 °C 30.28in /  1025.3hPa ESE 1.5mph /  2.4km/h 3mph /  4.8km/h 96% 0.00in /  0mm 0 W/m2
06:09 46.2 °F /  7.9 °C 45.1 °F /  7.3 °C 30.29in /  1025.6hPa East 1.3mph /  2.1km/h 4mph /  6.4km/h 96% 0.00in /  0mm 0 W/m2
06:14 46.2 °F /  7.9 °C 45.1 °F /  7.3 °C 30.29in /  1025.6hPa East 1.4mph /  2.3km/h 4mph /  6.4km/h 96% 0.00in /  0mm 0 W/m2
06:19 46 °F /  7.8 °C 45 °F /  7.2 °C 30.29in /  1025.6hPa East 0.6mph /  1km/h 3mph /  4.8km/h 96% 0.00in /  0mm 0 W/m2
06:23 45.9 °F /  7.7 °C 44.8 °F /  7.1 °C 30.29in /  1025.6hPa ESE 1.7mph /  2.7km/h 4mph /  6.4km/h 96% 0.00in /  0mm 0 W/m2
06:29 45.9 °F /  7.7 °C 44.8 °F /  7.1 °C 30.29in /  1025.6hPa ESE 1.6mph /  2.6km/h 4mph /  6.4km/h 96% 0.00in /  0mm 0 W/m2
06:34 45.9 °F /  7.7 °C 44.8 °F /  7.1 °C 30.30in /  1026hPa East 1.6mph /  2.6km/h 3mph /  4.8km/h 96% 0.00in /  0mm 0 W/m2
06:39 45.9 °F /  7.7 °C 44.8 °F /  7.1 °C 30.30in /  1026hPa East 0.4mph /  0.6km/h 2mph /  3.2km/h 96% 0.00in /  0mm 0 W/m2
06:44 45.9 °F /  7.7 °C 44.8 °F /  7.1 °C 30.30in /  1026hPa ENE 2mph /  3.2km/h 4mph /  6.4km/h 96% 0.00in /  0mm 0 W/m2
06:49 45.9 °F /  7.7 °C 44.8 °F /  7.1 °C 30.30in /  1026hPa East 3.7mph /  6km/h 6mph /  9.7km/h 96% 0.00in /  0mm 0 W/m2
06:54 45.9 °F /  7.7 °C 44.8 °F /  7.1 °C 30.30in /  1026hPa East 3.5mph /  5.6km/h 7mph /  11.3km/h 96% 0.00in /  0mm 0 W/m2
06:59 45.5 °F /  7.5 °C 44.4 °F /  6.9 °C 30.29in /  1025.6hPa ESE 2.9mph /  4.7km/h 6mph /  9.7km/h 96% 0.00in /  0mm 0 W/m2
07:04 45.2 °F /  7.3 °C 44.2 °F /  6.8 °C 30.29in /  1025.6hPa ESE 2.4mph /  3.9km/h 5mph /  8km/h 96% 0.00in /  0mm 0 W/m2
07:09 45.1 °F /  7.3 °C 44.1 °F /  6.7 °C 30.30in /  1026hPa East 1.6mph /  2.6km/h 6mph /  9.7km/h 96% 0.00in /  0mm 0 W/m2
07:14 45 °F /  7.2 °C 43.9 °F /  6.6 °C 30.30in /  1026hPa ESE 2.3mph /  3.7km/h 5mph /  8km/h 96% 0.00in /  0mm 0 W/m2
07:19 44.8 °F /  7.1 °C 43.7 °F /  6.5 °C 30.30in /  1026hPa East 1.5mph /  2.4km/h 3mph /  4.8km/h 96% 0.00in /  0mm 0 W/m2
07:24 44.8 °F /  7.1 °C 43.7 °F /  6.5 °C 30.31in /  1026.3hPa East 1.2mph /  1.9km/h 4mph /  6.4km/h 96% 0.00in /  0mm 0 W/m2
07:29 44.8 °F /  7.1 °C 43.7 °F /  6.5 °C 30.31in /  1026.3hPa ENE 0.7mph /  1.1km/h 2mph /  3.2km/h 96% 0.00in /  0mm 0 W/m2
07:34 44.8 °F /  7.1 °C 43.7 °F /  6.5 °C 30.31in /  1026.3hPa East 1.7mph /  2.7km/h 5mph /  8km/h 96% 0.00in /  0mm 0 W/m2
07:39 44.7 °F /  7.1 °C 43.6 °F /  6.4 °C 30.32in /  1026.6hPa East 0.8mph /  1.3km/h 4mph /  6.4km/h 96% 0.00in /  0mm 0 W/m2
07:44 44.6 °F /  7 °C 43.5 °F /  6.4 °C 30.32in /  1026.6hPa ENE 1.3mph /  2.1km/h 4mph /  6.4km/h 96% 0.00in /  0mm 0 W/m2
07:49 44.6 °F /  7 °C 43.5 °F /  6.4 °C 30.32in /  1026.6hPa East 2.1mph /  3.4km/h 3mph /  4.8km/h 96% 0.00in /  0mm 0 W/m2
07:54 44.6 °F /  7 °C 43.5 °F /  6.4 °C 30.32in /  1026.6hPa ESE 2.9mph /  4.7km/h 7mph /  11.3km/h 96% 0.00in /  0mm 0 W/m2
07:59 44.4 °F /  6.9 °C 43.3 °F /  6.3 °C 30.33in /  1027hPa ESE 3.1mph /  5km/h 5mph /  8km/h 96% 0.00in /  0mm 0 W/m2
08:04 44.3 °F /  6.8 °C 43.2 °F /  6.2 °C 30.33in /  1027hPa East 4.4mph /  7.1km/h 7mph /  11.3km/h 96% 0.00in /  0mm 0 W/m2
08:09 44.2 °F /  6.8 °C 43.2 °F /  6.2 °C 30.34in /  1027.3hPa East 2.4mph /  3.9km/h 7mph /  11.3km/h 96% 0.00in /  0mm 0 W/m2
08:14 44.2 °F /  6.8 °C 43.2 °F /  6.2 °C 30.34in /  1027.3hPa ESE 1.9mph /  3.1km/h 8mph /  12.9km/h 96% 0.00in /  0mm 0 W/m2
08:19 44.1 °F /  6.7 °C 43 °F /  6.1 °C 30.34in /  1027.3hPa ESE 2.8mph /  4.5km/h 5mph /  8km/h 96% 0.00in /  0mm 5 W/m2
08:24 44.1 °F /  6.7 °C 43 °F /  6.1 °C 30.34in /  1027.3hPa ESE 3.7mph /  6km/h 7mph /  11.3km/h 96% 0.00in /  0mm 5 W/m2
08:29 44.1 °F /  6.7 °C 43 °F /  6.1 °C 30.34in /  1027.3hPa ESE 3.5mph /  5.6km/h 6mph /  9.7km/h 96% 0.00in /  0mm 5 W/m2
08:34 44.1 °F /  6.7 °C 43 °F /  6.1 °C 30.34in /  1027.3hPa East 2.6mph /  4.2km/h 7mph /  11.3km/h 96% 0.00in /  0mm 9 W/m2
08:39 44 °F /  6.7 °C 42.9 °F /  6.1 °C 30.34in /  1027.3hPa East 2.3mph /  3.7km/h 7mph /  11.3km/h 96% 0.00in /  0mm 12 W/m2
08:44 43.9 °F /  6.6 °C 42.8 °F /  6 °C 30.35in /  1027.7hPa East 2.5mph /  4km/h 7mph /  11.3km/h 96% 0.00in /  0mm 12 W/m2
08:49 43.9 °F /  6.6 °C 42.8 °F /  6 °C 30.35in /  1027.7hPa ESE 1.1mph /  1.8km/h 4mph /  6.4km/h 96% 0.00in /  0mm 12 W/m2
08:54 44 °F /  6.7 °C 42.9 °F /  6.1 °C 30.35in /  1027.7hPa ENE 3.6mph /  5.8km/h 7mph /  11.3km/h 96% 0.00in /  0mm 14 W/m2
08:59 44.1 °F /  6.7 °C 43 °F /  6.1 °C 30.35in /  1027.7hPa East 3.1mph /  5km/h 7mph /  11.3km/h 96% 0.00in /  0mm 16 W/m2
09:04 44 °F /  6.7 °C 42.9 °F /  6.1 °C 30.35in /  1027.7hPa East 2.9mph /  4.7km/h 7mph /  11.3km/h 96% 0.00in /  0mm 19 W/m2
09:09 44 °F /  6.7 °C 42.9 °F /  6.1 °C 30.36in /  1028hPa ESE 2.5mph /  4km/h 5mph /  8km/h 96% 0.00in /  0mm 23 W/m2
09:14 43.9 °F /  6.6 °C 42.8 °F /  6 °C 30.36in /  1028hPa ESE 2.8mph /  4.5km/h 7mph /  11.3km/h 96% 0.00in /  0mm 23 W/m2
09:19 43.9 °F /  6.6 °C 42.8 °F /  6 °C 30.36in /  1028hPa East 2.7mph /  4.3km/h 5mph /  8km/h 96% 0.00in /  0mm 21 W/m2
09:24 44 °F /  6.7 °C 42.9 °F /  6.1 °C 30.36in /  1028hPa East 1.7mph /  2.7km/h 6mph /  9.7km/h 96% 0.00in /  0mm 25 W/m2
09:29 44.1 °F /  6.7 °C 43 °F /  6.1 °C 30.37in /  1028.3hPa East 1.8mph /  2.9km/h 5mph /  8km/h 96% 0.00in /  0mm 30 W/m2
09:34 44.1 °F /  6.7 °C 43 °F /  6.1 °C 30.37in /  1028.3hPa ESE 2.9mph /  4.7km/h 7mph /  11.3km/h 96% 0.00in /  0mm 46 W/m2
09:39 44.2 °F /  6.8 °C 43.2 °F /  6.2 °C 30.37in /  1028.3hPa ESE 2.1mph /  3.4km/h 5mph /  8km/h 96% 0.00in /  0mm 51 W/m2
09:44 44.2 °F /  6.8 °C 43.2 °F /  6.2 °C 30.37in /  1028.3hPa East 4.1mph /  6.6km/h 7mph /  11.3km/h 96% 0.00in /  0mm 70 W/m2
09:49 44.3 °F /  6.8 °C 43.2 °F /  6.2 °C 30.37in /  1028.3hPa ESE 1.2mph /  1.9km/h 7mph /  11.3km/h 96% 0.00in /  0mm 77 W/m2
09:54 44.3 °F /  6.8 °C 43.3 °F /  6.3 °C 30.37in /  1028.3hPa ESE 1.6mph /  2.6km/h 5mph /  8km/h 96% 0.00in /  0mm 79 W/m2
09:59 44.6 °F /  7 °C 43.5 °F /  6.4 °C 30.37in /  1028.3hPa East 2.1mph /  3.4km/h 5mph /  8km/h 96% 0.00in /  0mm 76 W/m2
10:04 44.7 °F /  7.1 °C 43.6 °F /  6.4 °C 30.38in /  1028.7hPa East 2.8mph /  4.5km/h 6mph /  9.7km/h 96% 0.00in /  0mm 60 W/m2
10:09 44.7 °F /  7.1 °C 43.6 °F /  6.4 °C 30.38in /  1028.7hPa East 1.6mph /  2.6km/h 6mph /  9.7km/h 96% 0.00in /  0mm 40 W/m2
10:13 44.8 °F /  7.1 °C 43.7 °F /  6.5 °C 30.39in /  1029hPa ESE 2.5mph /  4km/h 5mph /  8km/h 96% 0.00in /  0mm 30 W/m2
10:19 44.8 °F /  7.1 °C 43.7 °F /  6.5 °C 30.39in /  1029hPa ESE 2.1mph /  3.4km/h 5mph /  8km/h 96% 0.00in /  0mm 28 W/m2
10:24 44.8 °F /  7.1 °C 43.7 °F /  6.5 °C 30.39in /  1029hPa East 3mph /  4.8km/h 6mph /  9.7km/h 96% 0.00in /  0mm 30 W/m2
10:29 44.8 °F /  7.1 °C 43.7 °F /  6.5 °C 30.39in /  1029hPa ESE 2.8mph /  4.5km/h 6mph /  9.7km/h 96% 0.00in /  0mm 35 W/m2
10:34 45 °F /  7.2 °C 43.9 °F /  6.6 °C 30.39in /  1029hPa East 3.1mph /  5km/h 7mph /  11.3km/h 96% 0.00in /  0mm 37 W/m2
10:39 45 °F /  7.2 °C 43.9 °F /  6.6 °C 30.39in /  1029hPa ESE 4.2mph /  6.8km/h 8mph /  12.9km/h 96% 0.00in /  0mm 37 W/m2
10:44 45 °F /  7.2 °C 43.9 °F /  6.6 °C 30.39in /  1029hPa East 2.9mph /  4.7km/h 6mph /  9.7km/h 96% 0.00in /  0mm 39 W/m2
10:49 45 °F /  7.2 °C 43.9 °F /  6.6 °C 30.39in /  1029hPa East 2mph /  3.2km/h 5mph /  8km/h 96% 0.00in /  0mm 37 W/m2
10:54 45 °F /  7.2 °C 44 °F /  6.7 °C 30.39in /  1029hPa East 3.3mph /  5.3km/h 7mph /  11.3km/h 96% 0.00in /  0mm 39 W/m2
10:59 45.1 °F /  7.3 °C 44.1 °F /  6.7 °C 30.39in /  1029hPa East 3.9mph /  6.3km/h 7mph /  11.3km/h 96% 0.00in /  0mm 46 W/m2
11:04 45 °F /  7.2 °C 43.9 °F /  6.6 °C 30.38in /  1028.7hPa ESE 3.6mph /  5.8km/h 6mph /  9.7km/h 96% 0.00in /  0mm 51 W/m2
11:09 44.9 °F /  7.2 °C 43.8 °F /  6.6 °C 30.38in /  1028.7hPa East 4mph /  6.4km/h 8mph /  12.9km/h 96% 0.00in /  0mm 54 W/m2
11:14 44.8 °F /  7.1 °C 43.7 °F /  6.5 °C 30.38in /  1028.7hPa ESE 2.5mph /  4km/h 6mph /  9.7km/h 96% 0.00in /  0mm 62 W/m2
11:19 45 °F /  7.2 °C 43.9 °F /  6.6 °C 30.38in /  1028.7hPa East 3.3mph /  5.3km/h 7mph /  11.3km/h 96% 0.00in /  0mm 60 W/m2
11:23 45.1 °F /  7.3 °C 44.1 °F /  6.7 °C 30.38in /  1028.7hPa East 2.2mph /  3.5km/h 5mph /  8km/h 96% 0.00in /  0mm 53 W/m2
11:29 45.1 °F /  7.3 °C 44.1 °F /  6.7 °C 30.38in /  1028.7hPa East 1.7mph /  2.7km/h 5mph /  8km/h 96% 0.00in /  0mm 54 W/m2
11:34 45 °F /  7.2 °C 44 °F /  6.7 °C 30.38in /  1028.7hPa ESE 3.5mph /  5.6km/h 8mph /  12.9km/h 96% 0.00in /  0mm 60 W/m2
11:39 45.1 °F /  7.3 °C 44.1 °F /  6.7 °C 30.39in /  1029hPa ESE 2.4mph /  3.9km/h 7mph /  11.3km/h 96% 0.00in /  0mm 58 W/m2
11:44 45.2 °F /  7.3 °C 44.1 °F /  6.7 °C 30.39in /  1029hPa ESE 2mph /  3.2km/h 5mph /  8km/h 96% 0.00in /  0mm 62 W/m2
11:49 45.3 °F /  7.4 °C 44.2 °F /  6.8 °C 30.39in /  1029hPa ESE 1.4mph /  2.3km/h 5mph /  8km/h 96% 0.00in /  0mm 56 W/m2
11:54 45.3 °F /  7.4 °C 44.2 °F /  6.8 °C 30.39in /  1029hPa ESE 1.8mph /  2.9km/h 5mph /  8km/h 96% 0.00in /  0mm 58 W/m2
11:59 45.3 °F /  7.4 °C 44.2 °F /  6.8 °C 30.39in /  1029hPa ESE 1.6mph /  2.6km/h 3mph /  4.8km/h 96% 0.00in /  0mm 65 W/m2
12:04 45.7 °F /  7.6 °C 44.6 °F /  7 °C 30.39in /  1029hPa East 2.6mph /  4.2km/h 5mph /  8km/h 96% 0.00in /  0mm 69 W/m2
12:08 45.7 °F /  7.6 °C 44.6 °F /  7 °C 30.39in /  1029hPa East 1.7mph /  2.7km/h 3mph /  4.8km/h 96% 0.00in /  0mm 69 W/m2
12:14 45.7 °F /  7.6 °C 44.6 °F /  7 °C 30.39in /  1029hPa ESE 1.7mph /  2.7km/h 4mph /  6.4km/h 96% 0.00in /  0mm 63 W/m2
12:19 45.7 °F /  7.6 °C 44.6 °F /  7 °C 30.40in /  1029.3hPa East 3.5mph /  5.6km/h 5mph /  8km/h 96% 0.00in /  0mm 63 W/m2
12:24 45.9 °F /  7.7 °C 44.8 °F /  7.1 °C 30.40in /  1029.3hPa East 1.7mph /  2.7km/h 4mph /  6.4km/h 96% 0.00in /  0mm 56 W/m2
12:29 45.9 °F /  7.7 °C 44.8 °F /  7.1 °C 30.40in /  1029.3hPa East 1.9mph /  3.1km/h 5mph /  8km/h 96% 0.00in /  0mm 56 W/m2
12:34 45.9 °F /  7.7 °C 44.8 °F /  7.1 °C 30.40in /  1029.3hPa East 2.5mph /  4km/h 6mph /  9.7km/h 96% 0.00in /  0mm 54 W/m2
12:39 45.9 °F /  7.7 °C 44.8 °F /  7.1 °C 30.40in /  1029.3hPa East 2.1mph /  3.4km/h 6mph /  9.7km/h 96% 0.00in /  0mm 60 W/m2
12:44 45.9 °F /  7.7 °C 44.8 °F /  7.1 °C 30.40in /  1029.3hPa East 1.7mph /  2.7km/h 6mph /  9.7km/h 96% 0.00in /  0mm 63 W/m2
12:49 45.9 °F /  7.7 °C 44.8 °F /  7.1 °C 30.40in /  1029.3hPa ESE 2.4mph /  3.9km/h 5mph /  8km/h 96% 0.00in /  0mm 56 W/m2
12:54 45.9 °F /  7.7 °C 44.8 °F /  7.1 °C 30.40in /  1029.3hPa ESE 3.2mph /  5.1km/h 6mph /  9.7km/h 96% 0.00in /  0mm 58 W/m2
12:59 45.9 °F /  7.7 °C 44.8 °F /  7.1 °C 30.40in /  1029.3hPa East 2.7mph /  4.3km/h 6mph /  9.7km/h 96% 0.00in /  0mm 60 W/m2
13:04 46 °F /  7.8 °C 45 °F /  7.2 °C 30.40in /  1029.3hPa ENE 1.7mph /  2.7km/h 8mph /  12.9km/h 96% 0.00in /  0mm 56 W/m2
13:09 46.1 °F /  7.8 °C 45 °F /  7.2 °C 30.41in /  1029.7hPa East 1.5mph /  2.4km/h 4mph /  6.4km/h 96% 0.00in /  0mm 58 W/m2
13:14 46.2 °F /  7.9 °C 45.1 °F /  7.3 °C 30.41in /  1029.7hPa East 1.6mph /  2.6km/h 3mph /  4.8km/h 96% 0.00in /  0mm 58 W/m2
13:19 46.2 °F /  7.9 °C 45.1 °F /  7.3 °C 30.41in /  1029.7hPa East 3mph /  4.8km/h 6mph /  9.7km/h 96% 0.00in /  0mm 56 W/m2
13:24 46.3 °F /  7.9 °C 45.2 °F /  7.3 °C 30.41in /  1029.7hPa East 1.3mph /  2.1km/h 6mph /  9.7km/h 96% 0.00in /  0mm 53 W/m2
13:29 46.4 °F /  8 °C 45.3 °F /  7.4 °C 30.41in /  1029.7hPa ESE 1.2mph /  1.9km/h 4mph /  6.4km/h 96% 0.00in /  0mm 56 W/m2
13:34 46.6 °F /  8.1 °C 45.5 °F /  7.5 °C 30.42in /  1030hPa East 2.1mph /  3.4km/h 3mph /  4.8km/h 96% 0.00in /  0mm 53 W/m2
13:39 46.7 °F /  8.2 °C 45.6 °F /  7.6 °C 30.42in /  1030hPa East 2.3mph /  3.7km/h 5mph /  8km/h 96% 0.01in /  0.25mm 56 W/m2
13:44 46.8 °F /  8.2 °C 45.7 °F /  7.6 °C 30.42in /  1030hPa East 1.6mph /  2.6km/h 5mph /  8km/h 96% 0.01in /  0.25mm 56 W/m2
13:49 46.7 °F /  8.2 °C 45.6 °F /  7.6 °C 30.42in /  1030hPa East 1.8mph /  2.9km/h 4mph /  6.4km/h 96% 0.01in /  0.25mm 58 W/m2
13:54 46.8 °F /  8.2 °C 45.7 °F /  7.6 °C 30.42in /  1030hPa East 0.9mph /  1.4km/h 3mph /  4.8km/h 96% 0.01in /  0.25mm 51 W/m2
13:59 46.8 °F /  8.2 °C 45.8 °F /  7.7 °C 30.42in /  1030hPa East 0.5mph /  0.8km/h 2mph /  3.2km/h 96% 0.01in /  0.25mm 47 W/m2
14:04 46.9 °F /  8.3 °C 45.9 °F /  7.7 °C 30.42in /  1030hPa East 1mph /  1.6km/h 3mph /  4.8km/h 96% 0.01in /  0.25mm 39 W/m2
14:09 46.9 °F /  8.3 °C 45.8 °F /  7.7 °C 30.42in /  1030hPa ESE 1.4mph /  2.3km/h 3mph /  4.8km/h 96% 0.01in /  0.25mm 37 W/m2
14:14 46.9 °F /  8.3 °C 45.8 °F /  7.7 °C 30.42in /  1030hPa ESE 1.8mph /  2.9km/h 3mph /  4.8km/h 96% 0.01in /  0.25mm 35 W/m2
14:19 46.9 °F /  8.3 °C 45.9 °F /  7.7 °C 30.42in /  1030hPa ESE 1.3mph /  2.1km/h 3mph /  4.8km/h 96% 0.01in /  0.25mm 37 W/m2
14:24 47 °F /  8.3 °C 45.9 °F /  7.7 °C 30.43in /  1030.4hPa East 1mph /  1.6km/h 3mph /  4.8km/h 96% 0.01in /  0.25mm 37 W/m2
14:29 47.1 °F /  8.4 °C 46 °F /  7.8 °C 30.43in /  1030.4hPa East 1.2mph /  1.9km/h 3mph /  4.8km/h 96% 0.01in /  0.25mm 30 W/m2
14:34 47.1 °F /  8.4 °C 46 °F /  7.8 °C 30.43in /  1030.4hPa East 0.5mph /  0.8km/h 2mph /  3.2km/h 96% 0.01in /  0.25mm 25 W/m2
14:39 47.1 °F /  8.4 °C 46 °F /  7.8 °C 30.43in /  1030.4hPa East 0.8mph /  1.3km/h 2mph /  3.2km/h 96% 0.00in /  0mm 18 W/m2
14:44 47.3 °F /  8.5 °C 46.2 °F /  7.9 °C 30.43in /  1030.4hPa East 0.8mph /  1.3km/h 3mph /  4.8km/h 96% 0.00in /  0mm 18 W/m2
14:49 47.3 °F /  8.5 °C 46.2 °F /  7.9 °C 30.44in /  1030.7hPa East 0.8mph /  1.3km/h 2mph /  3.2km/h 96% 0.00in /  0mm 16 W/m2
14:54 47.5 °F /  8.6 °C 46.4 °F /  8 °C 30.44in /  1030.7hPa East 0.4mph /  0.6km/h 2mph /  3.2km/h 96% 0.00in /  0mm 14 W/m2
14:59 47.5 °F /  8.6 °C 46.4 °F /  8 °C 30.44in /  1030.7hPa East 0.9mph /  1.4km/h 2mph /  3.2km/h 96% 0.00in /  0mm 16 W/m2
15:04 47.5 °F /  8.6 °C 46.4 °F /  8 °C 30.45in /  1031hPa East 0.9mph /  1.4km/h 2mph /  3.2km/h 96% 0.00in /  0mm 16 W/m2
15:09 47.5 °F /  8.6 °C 46.4 °F /  8 °C 30.45in /  1031hPa East 0.9mph /  1.4km/h 2mph /  3.2km/h 96% 0.00in /  0mm 16 W/m2
15:14 47.5 °F /  8.6 °C 46.4 °F /  8 °C 30.45in /  1031hPa East 1mph /  1.6km/h 3mph /  4.8km/h 96% 0.00in /  0mm 18 W/m2
15:19 47.5 °F /  8.6 °C 46.4 °F /  8 °C 30.44in /  1030.7hPa East 1.1mph /  1.8km/h 3mph /  4.8km/h 96% 0.00in /  0mm 18 W/m2
15:24 47.7 °F /  8.7 °C 46.6 °F /  8.1 °C 30.45in /  1031hPa East 0.5mph /  0.8km/h 2mph /  3.2km/h 96% 0.00in /  0mm 12 W/m2
15:29 47.7 °F /  8.7 °C 46.6 °F /  8.1 °C 30.44in /  1030.7hPa East 1.7mph /  2.7km/h 3mph /  4.8km/h 96% 0.00in /  0mm 9 W/m2
15:34 47.7 °F /  8.7 °C 46.6 °F /  8.1 °C 30.44in /  1030.7hPa East 1.7mph /  2.7km/h 3mph /  4.8km/h 96% 0.00in /  0mm 9 W/m2
15:39 47.7 °F /  8.7 °C 46.6 °F /  8.1 °C 30.45in /  1031hPa East 0.4mph /  0.6km/h 3mph /  4.8km/h 96% 0.00in /  0mm 9 W/m2
15:44 47.7 °F /  8.7 °C 46.6 °F /  8.1 °C 30.45in /  1031hPa East 0.9mph /  1.4km/h 2mph /  3.2km/h 96% 0.00in /  0mm 9 W/m2
15:49 47.7 °F /  8.7 °C 46.6 °F /  8.1 °C 30.45in /  1031hPa East 0.4mph /  0.6km/h 2mph /  3.2km/h 96% 0.00in /  0mm 5 W/m2
15:54 47.7 °F /  8.7 °C 46.6 °F /  8.1 °C 30.44in /  1030.7hPa East 1.6mph /  2.6km/h 2mph /  3.2km/h 96% 0.00in /  0mm 0 W/m2
15:59 47.7 °F /  8.7 °C 46.6 °F /  8.1 °C 30.44in /  1030.7hPa East 1.8mph /  2.9km/h 3mph /  4.8km/h 96% 0.00in /  0mm 0 W/m2
16:04 47.7 °F /  8.7 °C 46.6 °F /  8.1 °C 30.44in /  1030.7hPa East 0.7mph /  1.1km/h 3mph /  4.8km/h 96% 0.00in /  0mm 0 W/m2
16:09 47.7 °F /  8.7 °C 46.6 °F /  8.1 °C 30.44in /  1030.7hPa East 1.7mph /  2.7km/h 3mph /  4.8km/h 96% 0.00in /  0mm 0 W/m2
16:14 47.7 °F /  8.7 °C 46.6 °F /  8.1 °C 30.44in /  1030.7hPa East 1.7mph /  2.7km/h 3mph /  4.8km/h 96% 0.00in /  0mm 0 W/m2
16:19 47.7 °F /  8.7 °C 46.6 °F /  8.1 °C 30.45in /  1031hPa East 1.7mph /  2.7km/h 5mph /  8km/h 96% 0.00in /  0mm 0 W/m2
16:24 47.8 °F /  8.8 °C 46.8 °F /  8.2 °C 30.45in /  1031hPa East 2mph /  3.2km/h 5mph /  8km/h 96% 0.00in /  0mm 0 W/m2
16:29 47.8 °F /  8.8 °C 46.8 °F /  8.2 °C 30.45in /  1031hPa East 4mph /  6.4km/h 8mph /  12.9km/h 96% 0.00in /  0mm 0 W/m2
16:34 47.8 °F /  8.8 °C 46.8 °F /  8.2 °C 30.45in /  1031hPa ESE 3mph /  4.8km/h 7mph /  11.3km/h 96% 0.00in /  0mm 0 W/m2
16:38 47.8 °F /  8.8 °C 46.8 °F /  8.2 °C 30.45in /  1031hPa ESE 2.2mph /  3.5km/h 4mph /  6.4km/h 96% 0.00in /  0mm 0 W/m2
16:44 47.8 °F /  8.8 °C 46.8 °F /  8.2 °C 30.45in /  1031hPa ESE 2.9mph /  4.7km/h 4mph /  6.4km/h 96% 0.00in /  0mm 0 W/m2
16:49 47.8 °F /  8.8 °C 46.8 °F /  8.2 °C 30.45in /  1031hPa ESE 3.6mph /  5.8km/h 5mph /  8km/h 96% 0.00in /  0mm 0 W/m2
16:54 47.8 °F /  8.8 °C 46.8 °F /  8.2 °C 30.45in /  1031hPa ESE 3.3mph /  5.3km/h 5mph /  8km/h 96% 0.00in /  0mm 0 W/m2
16:59 47.8 °F /  8.8 °C 46.8 °F /  8.2 °C 30.46in /  1031.4hPa ESE 4mph /  6.4km/h 7mph /  11.3km/h 96% 0.00in /  0mm 0 W/m2
17:04 47.8 °F /  8.8 °C 46.8 °F /  8.2 °C 30.46in /  1031.4hPa ESE 3.2mph /  5.1km/h 6mph /  9.7km/h 96% 0.00in /  0mm 0 W/m2
17:09 47.8 °F /  8.8 °C 46.8 °F /  8.2 °C 30.46in /  1031.4hPa East 3.3mph /  5.3km/h 7mph /  11.3km/h 96% 0.00in /  0mm 0 W/m2
17:14 47.9 °F /  8.8 °C 46.9 °F /  8.3 °C 30.46in /  1031.4hPa ESE 1.8mph /  2.9km/h 4mph /  6.4km/h 96% 0.00in /  0mm 0 W/m2
17:19 48 °F /  8.9 °C 46.9 °F /  8.3 °C 30.46in /  1031.4hPa East 1.4mph /  2.3km/h 3mph /  4.8km/h 96% 0.00in /  0mm 0 W/m2
17:24 48 °F /  8.9 °C 46.9 °F /  8.3 °C 30.46in /  1031.4hPa ESE 2.2mph /  3.5km/h 4mph /  6.4km/h 96% 0.00in /  0mm 0 W/m2
17:29 48 °F /  8.9 °C 46.9 °F /  8.3 °C 30.46in /  1031.4hPa ESE 1.6mph /  2.6km/h 3mph /  4.8km/h 96% 0.00in /  0mm 0 W/m2
17:34 48 °F /  8.9 °C 46.9 °F /  8.3 °C 30.46in /  1031.4hPa East 2.4mph /  3.9km/h 4mph /  6.4km/h 96% 0.00in /  0mm 0 W/m2
17:38 48 °F /  8.9 °C 46.9 °F /  8.3 °C 30.46in /  1031.4hPa East 2.7mph /  4.3km/h 6mph /  9.7km/h 96% 0.00in /  0mm 0 W/m2
17:44 48 °F /  8.9 °C 46.9 °F /  8.3 °C 30.47in /  1031.7hPa East 0.9mph /  1.4km/h 3mph /  4.8km/h 96% 0.00in /  0mm 0 W/m2
17:49 48 °F /  8.9 °C 46.9 °F /  8.3 °C 30.47in /  1031.7hPa East 1.7mph /  2.7km/h 3mph /  4.8km/h 96% 0.00in /  0mm 0 W/m2
17:54 48 °F /  8.9 °C 46.9 °F /  8.3 °C 30.47in /  1031.7hPa East 1.6mph /  2.6km/h 3mph /  4.8km/h 96% 0.00in /  0mm 0 W/m2
17:59 48 °F /  8.9 °C 46.9 °F /  8.3 °C 30.47in /  1031.7hPa ESE 2.2mph /  3.5km/h 4mph /  6.4km/h 96% 0.00in /  0mm 0 W/m2
18:04 48 °F /  8.9 °C 46.9 °F /  8.3 °C 30.47in /  1031.7hPa ESE 2.2mph /  3.5km/h 4mph /  6.4km/h 96% 0.00in /  0mm 0 W/m2
18:08 48 °F /  8.9 °C 46.9 °F /  8.3 °C 30.47in /  1031.7hPa SE 1.5mph /  2.4km/h 4mph /  6.4km/h 96% 0.00in /  0mm 0 W/m2
18:14 48 °F /  8.9 °C 46.9 °F /  8.3 °C 30.47in /  1031.7hPa East 2mph /  3.2km/h 3mph /  4.8km/h 96% 0.00in /  0mm 0 W/m2
18:19 48 °F /  8.9 °C 46.9 °F /  8.3 °C 30.47in /  1031.7hPa ESE 2mph /  3.2km/h 4mph /  6.4km/h 96% 0.00in /  0mm 0 W/m2
18:24 48 °F /  8.9 °C 46.9 °F /  8.3 °C 30.47in /  1031.7hPa ESE 0.5mph /  0.8km/h 2mph /  3.2km/h 96% 0.00in /  0mm 0 W/m2
18:29 48 °F /  8.9 °C 46.9 °F /  8.3 °C 30.48in /  1032.1hPa ESE 0.7mph /  1.1km/h 2mph /  3.2km/h 96% 0.00in /  0mm 0 W/m2
18:34 48 °F /  8.9 °C 46.9 °F /  8.3 °C 30.48in /  1032.1hPa East 0.5mph /  0.8km/h 2mph /  3.2km/h 96% 0.00in /  0mm 0 W/m2
18:39 48 °F /  8.9 °C 46.9 °F /  8.3 °C 30.48in /  1032.1hPa East 0.8mph /  1.3km/h 2mph /  3.2km/h 96% 0.00in /  0mm 0 W/m2
18:44 48 °F /  8.9 °C 46.9 °F /  8.3 °C 30.48in /  1032.1hPa East 1.2mph /  1.9km/h 3mph /  4.8km/h 96% 0.00in /  0mm 0 W/m2
18:49 48 °F /  8.9 °C 46.9 °F /  8.3 °C 30.48in /  1032.1hPa East 1.2mph /  1.9km/h 3mph /  4.8km/h 96% 0.00in /  0mm 0 W/m2
18:54 48.2 °F /  9 °C 47.1 °F /  8.4 °C 30.49in /  1032.4hPa East 1.3mph /  2.1km/h 3mph /  4.8km/h 96% 0.00in /  0mm 0 W/m2
18:59 48.2 °F /  9 °C 47.1 °F /  8.4 °C 30.49in /  1032.4hPa East 0.8mph /  1.3km/h 3mph /  4.8km/h 96% 0.00in /  0mm 0 W/m2
19:04 48.2 °F /  9 °C 47.1 °F /  8.4 °C 30.49in /  1032.4hPa East 0.6mph /  1km/h 2mph /  3.2km/h 96% 0.00in /  0mm 0 W/m2
19:09 48.2 °F /  9 °C 47.1 °F /  8.4 °C 30.49in /  1032.4hPa ESE 2.2mph /  3.5km/h 5mph /  8km/h 96% 0.00in /  0mm 0 W/m2
19:14 48.2 °F /  9 °C 47.1 °F /  8.4 °C 30.49in /  1032.4hPa ESE 3.2mph /  5.1km/h 6mph /  9.7km/h 96% 0.00in /  0mm 0 W/m2
19:19 48.3 °F /  9.1 °C 47.2 °F /  8.4 °C 30.49in /  1032.4hPa East 2.2mph /  3.5km/h 3mph /  4.8km/h 96% 0.00in /  0mm 0 W/m2
19:24 48.3 °F /  9.1 °C 47.2 °F /  8.4 °C 30.49in /  1032.4hPa ESE 2.1mph /  3.4km/h 4mph /  6.4km/h 96% 0.00in /  0mm 0 W/m2
19:29 48.3 °F /  9.1 °C 47.2 °F /  8.4 °C 30.49in /  1032.4hPa ESE 1.5mph /  2.4km/h 3mph /  4.8km/h 96% 0.00in /  0mm 0 W/m2
19:34 48.2 °F /  9 °C 47.1 °F /  8.4 °C 30.49in /  1032.4hPa ESE 3.4mph /  5.5km/h 5mph /  8km/h 96% 0.00in /  0mm 0 W/m2
19:39 48.1 °F /  8.9 °C 47 °F /  8.3 °C 30.49in /  1032.4hPa ESE 2.8mph /  4.5km/h 5mph /  8km/h 96% 0.00in /  0mm 0 W/m2
19:44 48 °F /  8.9 °C 46.9 °F /  8.3 °C 30.49in /  1032.4hPa East 1.4mph /  2.3km/h 4mph /  6.4km/h 96% 0.00in /  0mm 0 W/m2
19:49 48.1 °F /  8.9 °C 47 °F /  8.3 °C 30.50in /  1032.7hPa East 2.8mph /  4.5km/h 5mph /  8km/h 96% 0.00in /  0mm 0 W/m2
19:54 48 °F /  8.9 °C 46.9 °F /  8.3 °C 30.50in /  1032.7hPa SE 2.4mph /  3.9km/h 6mph /  9.7km/h 96% 0.00in /  0mm 0 W/m2
19:59 48 °F /  8.9 °C 46.9 °F /  8.3 °C 30.50in /  1032.7hPa Calm   2mph /  3.2km/h 96% 0.00in /  0mm 0 W/m2
20:04 48 °F /  8.9 °C 46.9 °F /  8.3 °C 30.50in /  1032.7hPa SE 2.6mph /  4.2km/h 4mph /  6.4km/h 96% 0.00in /  0mm 0 W/m2
20:09 48 °F /  8.9 °C 46.9 °F /  8.3 °C 30.50in /  1032.7hPa ESE 2mph /  3.2km/h 4mph /  6.4km/h 96% 0.00in /  0mm 0 W/m2
20:14 48 °F /  8.9 °C 46.9 °F /  8.3 °C 30.50in /  1032.7hPa ESE 4mph /  6.4km/h 7mph /  11.3km/h 96% 0.00in /  0mm 0 W/m2
20:19 48 °F /  8.9 °C 46.9 °F /  8.3 °C 30.50in /  1032.7hPa ESE 2.9mph /  4.7km/h 6mph /  9.7km/h 96% 0.00in /  0mm 0 W/m2
20:24 48 °F /  8.9 °C 46.9 °F /  8.3 °C 30.50in /  1032.7hPa ESE 2.6mph /  4.2km/h 5mph /  8km/h 96% 0.00in /  0mm 0 W/m2
20:29 48 °F /  8.9 °C 46.9 °F /  8.3 °C 30.50in /  1032.7hPa ESE 1.7mph /  2.7km/h 5mph /  8km/h 96% 0.00in /  0mm 0 W/m2
20:34 47.9 °F /  8.8 °C 46.8 °F /  8.2 °C 30.50in /  1032.7hPa SE 3.1mph /  5km/h 7mph /  11.3km/h 96% 0.00in /  0mm 0 W/m2
20:39 47.8 °F /  8.8 °C 46.8 °F /  8.2 °C 30.50in /  1032.7hPa SE 2.9mph /  4.7km/h 6mph /  9.7km/h 96% 0.00in /  0mm 0 W/m2
20:44 47.8 °F /  8.8 °C 46.8 °F /  8.2 °C 30.50in /  1032.7hPa ESE 5mph /  8km/h 9mph /  14.5km/h 96% 0.00in /  0mm 0 W/m2
20:49 47.8 °F /  8.8 °C 46.8 °F /  8.2 °C 30.50in /  1032.7hPa SE 3.6mph /  5.8km/h 9mph /  14.5km/h 96% 0.00in /  0mm 0 W/m2
20:54 47.7 °F /  8.7 °C 46.6 °F /  8.1 °C 30.50in /  1032.7hPa SE 5.5mph /  8.9km/h 10mph /  16.1km/h 96% 0.00in /  0mm 0 W/m2
20:59 47.7 °F /  8.7 °C 46.6 °F /  8.1 °C 30.50in /  1032.7hPa ESE 3.6mph /  5.8km/h 7mph /  11.3km/h 96% 0.00in /  0mm 0 W/m2
21:04 47.7 °F /  8.7 °C 46.7 °F /  8.2 °C 30.50in /  1032.7hPa SE 3.6mph /  5.8km/h 7mph /  11.3km/h 96% 0.00in /  0mm 0 W/m2
21:09 47.7 °F /  8.7 °C 46.6 °F /  8.1 °C 30.50in /  1032.7hPa ESE 2.7mph /  4.3km/h 8mph /  12.9km/h 96% 0.00in /  0mm 0 W/m2
21:14 47.7 °F /  8.7 °C 46.6 °F /  8.1 °C 30.50in /  1032.7hPa SE 3mph /  4.8km/h 6mph /  9.7km/h 96% 0.00in /  0mm 0 W/m2
21:19 47.7 °F /  8.7 °C 46.7 °F /  8.2 °C 30.51in /  1033.1hPa SSE 1.7mph /  2.7km/h 5mph /  8km/h 96.2% 0.00in /  0mm 0 W/m2
21:24 47.7 °F /  8.7 °C 46.6 °F /  8.1 °C 30.50in /  1032.7hPa SSE 2.7mph /  4.3km/h 4mph /  6.4km/h 96% 0.00in /  0mm 0 W/m2
21:29 47.7 °F /  8.7 °C 46.6 °F /  8.1 °C 30.50in /  1032.7hPa SE 3.8mph /  6.1km/h 7mph /  11.3km/h 96% 0.00in /  0mm 0 W/m2
21:34 47.7 °F /  8.7 °C 46.7 °F /  8.2 °C 30.50in /  1032.7hPa ESE 2mph /  3.2km/h 5mph /  8km/h 96.4% 0.00in /  0mm 0 W/m2
21:39 47.7 °F /  8.7 °C 46.7 °F /  8.2 °C 30.50in /  1032.7hPa ENE 3.2mph /  5.1km/h 8mph /  12.9km/h 96% 0.00in /  0mm 0 W/m2
21:44 47.8 °F /  8.8 °C 46.8 °F /  8.2 °C 30.51in /  1033.1hPa ESE 0.9mph /  1.4km/h 8mph /  12.9km/h 96% 0.00in /  0mm 0 W/m2
21:49 47.8 °F /  8.8 °C 46.8 °F /  8.2 °C 30.51in /  1033.1hPa East 1.7mph /  2.7km/h 5mph /  8km/h 96% 0.00in /  0mm 0 W/m2
21:54 47.8 °F /  8.8 °C 46.8 °F /  8.2 °C 30.51in /  1033.1hPa East 0.4mph /  0.6km/h 3mph /  4.8km/h 96% 0.00in /  0mm 0 W/m2
21:59 47.8 °F /  8.8 °C 46.8 °F /  8.2 °C 30.51in /  1033.1hPa East 1.7mph /  2.7km/h 3mph /  4.8km/h 96% 0.00in /  0mm 0 W/m2
22:04 47.7 °F /  8.7 °C 46.6 °F /  8.1 °C 30.51in /  1033.1hPa East 0.4mph /  0.6km/h 2mph /  3.2km/h 96% 0.00in /  0mm 0 W/m2
22:09 47.8 °F /  8.8 °C 46.8 °F /  8.2 °C 30.51in /  1033.1hPa ESE 1.2mph /  1.9km/h 5mph /  8km/h 96.2% 0.00in /  0mm 0 W/m2
22:14 47.8 °F /  8.8 °C 46.8 °F /  8.2 °C 30.52in /  1033.4hPa ESE 2.4mph /  3.9km/h 5mph /  8km/h 96% 0.00in /  0mm 0 W/m2
22:19 47.8 °F /  8.8 °C 46.8 °F /  8.2 °C 30.52in /  1033.4hPa ESE 2.4mph /  3.9km/h 4mph /  6.4km/h 96% 0.00in /  0mm 0 W/m2
22:24 47.8 °F /  8.8 °C 46.8 °F /  8.2 °C 30.52in /  1033.4hPa SE 3mph /  4.8km/h 4mph /  6.4km/h 96% 0.00in /  0mm 0 W/m2
22:29 47.8 °F /  8.8 °C 46.8 °F /  8.2 °C 30.52in /  1033.4hPa SE 1.7mph /  2.7km/h 4mph /  6.4km/h 96% 0.00in /  0mm 0 W/m2
22:34 47.8 °F /  8.8 °C 46.8 °F /  8.2 °C 30.52in /  1033.4hPa ESE 1.7mph /  2.7km/h 5mph /  8km/h 96% 0.00in /  0mm 0 W/m2
22:39 47.8 °F /  8.8 °C 46.8 °F /  8.2 °C 30.52in /  1033.4hPa East 0.8mph /  1.3km/h 5mph /  8km/h 96% 0.00in /  0mm 0 W/m2
22:44 47.8 °F /  8.8 °C 46.8 °F /  8.2 °C 30.53in /  1033.7hPa East 0.2mph /  0.3km/h 1mph /  1.6km/h 96% 0.00in /  0mm 0 W/m2
22:49 47.8 °F /  8.8 °C 46.8 °F /  8.2 °C 30.53in /  1033.7hPa East 0.4mph /  0.6km/h 3mph /  4.8km/h 96% 0.00in /  0mm 0 W/m2
22:54 47.9 °F /  8.8 °C 46.8 °F /  8.2 °C 30.53in /  1033.7hPa SSE 0.8mph /  1.3km/h 2mph /  3.2km/h 96% 0.00in /  0mm 0 W/m2
22:59 48 °F /  8.9 °C 46.9 °F /  8.3 °C 30.53in /  1033.7hPa SE 1.8mph /  2.9km/h 3mph /  4.8km/h 96% 0.00in /  0mm 0 W/m2
23:04 48 °F /  8.9 °C 46.9 °F /  8.3 °C 30.53in /  1033.7hPa ESE 2mph /  3.2km/h 4mph /  6.4km/h 96% 0.00in /  0mm 0 W/m2
23:09 48 °F /  8.9 °C 46.9 °F /  8.3 °C 30.53in /  1033.7hPa ESE 2.2mph /  3.5km/h 5mph /  8km/h 96% 0.00in /  0mm 0 W/m2
23:14 48 °F /  8.9 °C 46.9 °F /  8.3 °C 30.53in /  1033.7hPa ESE 3mph /  4.8km/h 5mph /  8km/h 96% 0.00in /  0mm 0 W/m2
23:19 48.1 °F /  8.9 °C 47 °F /  8.3 °C 30.53in /  1033.7hPa SE 2.5mph /  4km/h 5mph /  8km/h 96% 0.00in /  0mm 0 W/m2
23:24 48.1 °F /  8.9 °C 47 °F /  8.3 °C 30.53in /  1033.7hPa ESE 1.6mph /  2.6km/h 5mph /  8km/h 96% 0.00in /  0mm 0 W/m2
23:29 48.2 °F /  9 °C 47.1 °F /  8.4 °C 30.53in /  1033.7hPa East 3mph /  4.8km/h 6mph /  9.7km/h 96% 0.00in /  0mm 0 W/m2
23:33 48.2 °F /  9 °C 47.1 °F /  8.4 °C 30.53in /  1033.7hPa ESE 2.5mph /  4km/h 5mph /  8km/h 96% 0.00in /  0mm 0 W/m2
23:39 48.1 °F /  8.9 °C 47 °F /  8.3 °C 30.53in /  1033.7hPa ESE 1.9mph /  3.1km/h 4mph /  6.4km/h 96% 0.00in /  0mm 0 W/m2
23:44 48.2 °F /  9 °C 47.1 °F /  8.4 °C 30.53in /  1033.7hPa East 2mph /  3.2km/h 5mph /  8km/h 96% 0.00in /  0mm 0 W/m2
23:49 48.2 °F /  9 °C 47.1 °F /  8.4 °C 30.53in /  1033.7hPa ESE 0.6mph /  1km/h 3mph /  4.8km/h 96% 0.00in /  0mm 0 W/m2
23:54 48.2 °F /  9 °C 47.1 °F /  8.4 °C 30.53in /  1033.7hPa ESE 0.8mph /  1.3km/h 2mph /  3.2km/h 96% 0.00in /  0mm 0 W/m2
23:58 48.3 °F /  9.1 °C 47.2 °F /  8.4 °C 30.53in /  1033.7hPa ESE 1.2mph /  1.9km/h 2mph /  3.2km/h 96% 0.00in /  0mm 0 W/m2
Bath Spa Weather
Compliments of Weather Underground - 2 mb